createdAt,value
2018-04-08T00:01:04.719Z,44.80
2018-04-08T00:03:31.779Z,45.20
2018-04-08T00:05:58.180Z,45.10
2018-04-08T00:08:24.448Z,45.20
2018-04-08T00:10:50.754Z,45.60
2018-04-08T00:13:17.796Z,45.70
2018-04-08T00:15:44.033Z,45.60
2018-04-08T00:18:10.356Z,45.40
2018-04-08T00:20:37.386Z,46.00
2018-04-08T00:23:04.391Z,45.70
2018-04-08T00:25:30.723Z,45.70
2018-04-08T00:27:57.050Z,45.90
2018-04-08T00:30:23.359Z,45.50
2018-04-08T00:32:49.649Z,45.10
2018-04-08T00:35:15.912Z,45.30
2018-04-08T00:37:42.200Z,46.20
2018-04-08T00:40:08.500Z,45.20
2018-04-08T00:42:34.832Z,45.50
2018-04-08T00:45:01.104Z,45.80
2018-04-08T00:47:27.391Z,46.00
2018-04-08T00:49:53.722Z,44.80
2018-04-08T00:52:20.032Z,45.50
2018-04-08T00:54:47.085Z,46.30
2018-04-08T00:57:13.367Z,45.80
2018-04-08T00:59:39.665Z,46.30
2018-04-08T01:02:05.955Z,45.70
2018-04-08T01:04:32.986Z,46.20
2018-04-08T01:06:59.284Z,45.60
2018-04-08T01:09:25.547Z,46.40
2018-04-08T01:11:52.565Z,47.10
2018-04-08T01:14:18.871Z,46.00
2018-04-08T01:16:45.184Z,46.50
2018-04-08T01:19:11.480Z,46.70
2018-04-08T01:21:37.771Z,46.30
2018-04-08T01:24:04.093Z,46.70
2018-04-08T01:26:30.358Z,46.80
2018-04-08T01:28:56.622Z,46.40
2018-04-08T01:31:23.646Z,47.00
2018-04-08T01:33:49.931Z,46.90
2018-04-08T01:36:16.217Z,47.00
2018-04-08T01:38:42.507Z,47.20
2018-04-08T01:41:08.848Z,47.80
2018-04-08T01:43:35.135Z,47.50
2018-04-08T01:46:02.151Z,47.60
2018-04-08T01:48:29.197Z,47.40
2018-04-08T01:50:55.476Z,47.00
2018-04-08T01:53:21.736Z,47.40
2018-04-08T01:55:48.801Z,47.50
2018-04-08T01:58:15.124Z,47.40
2018-04-08T02:00:41.431Z,48.20
2018-04-08T02:03:07.707Z,46.70
2018-04-08T02:05:34.734Z,46.90
2018-04-08T02:08:01.055Z,48.00
2018-04-08T02:10:27.303Z,47.30
2018-04-08T02:12:53.559Z,47.10
2018-04-08T02:15:20.572Z,47.70
2018-04-08T02:17:46.863Z,47.80
2018-04-08T02:20:13.148Z,47.70
2018-04-08T02:22:40.168Z,48.00
2018-04-08T02:25:06.448Z,48.00
2018-04-08T02:27:32.752Z,48.00
2018-04-08T02:29:59.019Z,48.30
2018-04-08T02:32:25.306Z,48.60
2018-04-08T02:34:51.581Z,48.70
2018-04-08T02:37:17.850Z,48.90
2018-04-08T02:39:44.133Z,49.00
2018-04-08T02:42:10.404Z,48.50
2018-04-08T02:44:36.681Z,47.90
2018-04-08T02:47:03.667Z,47.90
2018-04-08T02:49:29.912Z,48.00
2018-04-08T02:51:56.188Z,48.20
2018-04-08T02:54:22.456Z,48.00
2018-04-08T02:56:48.732Z,48.00
2018-04-08T02:59:14.980Z,48.00
2018-04-08T03:01:41.969Z,47.60
2018-04-08T03:04:08.260Z,47.60
2018-04-08T03:06:34.608Z,47.90
2018-04-08T03:09:00.935Z,48.00
2018-04-08T03:11:27.247Z,47.70
2018-04-08T03:13:53.519Z,47.70
2018-04-08T03:16:19.808Z,47.90
2018-04-08T03:18:46.840Z,48.10
2018-04-08T03:21:13.828Z,47.60
2018-04-08T03:23:40.148Z,47.70
2018-04-08T03:26:06.411Z,47.80
2018-04-08T03:28:32.684Z,47.70
2018-04-08T03:30:59.724Z,48.20
2018-04-08T03:33:26.727Z,48.40
2018-04-08T03:35:53.003Z,48.60
2018-04-08T03:38:20.015Z,48.60
2018-04-08T03:40:46.303Z,48.80
2018-04-08T03:43:12.595Z,48.10
2018-04-08T03:45:39.608Z,48.70
2018-04-08T03:48:05.955Z,48.20
2018-04-08T03:50:32.229Z,48.50
2018-04-08T03:52:59.215Z,49.40
2018-04-08T03:55:25.487Z,49.20
2018-04-08T03:57:52.531Z,49.70
2018-04-08T04:00:18.856Z,49.60
2018-04-08T04:02:45.135Z,49.20
2018-04-08T04:05:11.421Z,49.70
2018-04-08T04:07:37.731Z,49.30
2018-04-08T04:10:03.995Z,49.50
2018-04-08T04:12:31.047Z,49.40
2018-04-08T04:14:58.092Z,49.00
2018-04-08T04:17:24.392Z,48.70
2018-04-08T04:20:02.897Z,48.80
2018-04-08T04:22:41.555Z,48.50
2018-04-08T04:25:24.784Z,48.60
2018-04-08T04:27:51.814Z,49.20
2018-04-08T04:30:18.087Z,49.10
2018-04-08T04:32:44.395Z,48.80
2018-04-08T04:35:11.444Z,48.70
2018-04-08T04:37:38.451Z,48.70
2018-04-08T04:40:04.735Z,47.60
2018-04-08T04:42:31.014Z,48.50
2018-04-08T04:44:57.279Z,47.80
2018-04-08T04:47:24.281Z,48.60
2018-04-08T04:49:50.541Z,47.80
2018-04-08T04:52:16.791Z,47.80
2018-04-08T04:54:43.830Z,48.40
2018-04-08T04:57:10.822Z,48.00
2018-04-08T04:59:37.107Z,48.40
2018-04-08T05:02:04.107Z,48.70
2018-04-08T05:04:30.375Z,48.90
2018-04-08T05:06:56.655Z,49.30
2018-04-08T05:09:22.911Z,49.40
2018-04-08T05:11:49.203Z,49.50
2018-04-08T05:14:15.485Z,49.90
2018-04-08T05:16:41.759Z,49.40
2018-04-08T05:19:08.059Z,49.50
2018-04-08T05:21:35.055Z,48.70
2018-04-08T05:24:01.330Z,49.00
2018-04-08T05:26:28.360Z,49.20
2018-04-08T05:28:54.653Z,49.00
2018-04-08T05:31:20.928Z,48.90
2018-04-08T05:33:47.196Z,48.60
2018-04-08T05:36:13.462Z,48.60
2018-04-08T05:38:39.727Z,48.40
2018-04-08T05:41:06.739Z,47.50
2018-04-08T05:43:33.012Z,47.70
2018-04-08T05:46:00.025Z,46.60
2018-04-08T05:48:26.321Z,47.10
2018-04-08T05:50:52.575Z,47.00
2018-04-08T05:53:18.844Z,46.50
2018-04-08T05:55:45.885Z,45.10
2018-04-08T05:58:12.936Z,44.70
2018-04-08T06:00:39.991Z,44.60
2018-04-08T06:03:06.990Z,44.70
2018-04-08T06:05:34.004Z,44.70
2018-04-08T06:08:00.324Z,44.80
2018-04-08T06:10:26.591Z,44.30
2018-04-08T06:12:52.891Z,44.10
2018-04-08T06:15:19.148Z,43.60
2018-04-08T06:17:45.410Z,43.00
2018-04-08T06:20:11.683Z,42.10
2018-04-08T06:22:37.951Z,41.00
2018-04-08T06:25:04.252Z,41.10
2018-04-08T06:27:30.591Z,41.40
2018-04-08T06:29:56.863Z,41.30
2018-04-08T06:32:23.122Z,41.20
2018-04-08T06:34:50.175Z,41.00
2018-04-08T06:37:16.455Z,40.70
2018-04-08T06:39:42.812Z,41.10
2018-04-08T06:42:09.870Z,39.30
2018-04-08T06:44:36.192Z,39.80
2018-04-08T06:47:03.244Z,39.70
2018-04-08T06:49:30.277Z,39.00
2018-04-08T06:51:56.573Z,39.30
2018-04-08T06:54:22.823Z,40.10
2018-04-08T06:56:49.083Z,40.30
2018-04-08T06:59:15.331Z,40.50
2018-04-08T07:01:41.578Z,39.40
2018-04-08T07:04:08.660Z,38.50
2018-04-08T07:06:34.919Z,38.60
2018-04-08T07:09:01.963Z,37.80
2018-04-08T07:11:29.022Z,37.10
2018-04-08T07:13:55.275Z,37.10
2018-04-08T07:16:21.563Z,36.10
2018-04-08T07:18:47.811Z,36.10
2018-04-08T07:21:14.080Z,35.30
2018-04-08T07:23:40.404Z,36.30
2018-04-08T07:26:06.699Z,35.70
2018-04-08T07:28:32.986Z,35.90
2018-04-08T07:30:59.251Z,36.50
2018-04-08T07:33:26.276Z,37.50
2018-04-08T07:35:52.532Z,38.00
2018-04-08T07:38:18.828Z,38.70
2018-04-08T07:40:45.096Z,39.00
2018-04-08T07:43:12.114Z,39.10
2018-04-08T07:45:38.359Z,39.00
2018-04-08T07:48:04.652Z,39.00
2018-04-08T07:50:30.930Z,39.80
2018-04-08T07:52:57.200Z,38.50
2018-04-08T07:55:23.471Z,39.30
2018-04-08T07:57:49.759Z,38.70
2018-04-08T08:00:16.073Z,38.50
2018-04-08T08:02:42.359Z,37.00
2018-04-08T08:05:08.637Z,35.70
2018-04-08T08:07:34.928Z,34.00
2018-04-08T08:10:01.215Z,34.20
2018-04-08T08:12:27.483Z,33.30
2018-04-08T08:14:53.832Z,32.30
2018-04-08T08:17:20.857Z,33.70
2018-04-08T08:19:47.900Z,34.30
2018-04-08T08:22:14.160Z,34.40
2018-04-08T08:24:40.427Z,34.50
2018-04-08T08:27:06.709Z,35.90
2018-04-08T08:29:33.690Z,36.00
2018-04-08T08:31:59.980Z,36.20
2018-04-08T08:34:26.987Z,35.80
2018-04-08T08:36:53.261Z,35.60
2018-04-08T08:39:20.256Z,34.70
2018-04-08T08:41:46.562Z,33.70
2018-04-08T08:44:13.534Z,34.60
2018-04-08T08:46:39.799Z,34.40
2018-04-08T08:49:06.072Z,32.80
2018-04-08T08:51:32.360Z,32.80
2018-04-08T08:53:58.621Z,32.70
2018-04-08T08:56:24.908Z,33.00
2018-04-08T08:58:51.205Z,33.90
2018-04-08T09:01:17.511Z,33.90
2018-04-08T09:03:43.851Z,34.20
2018-04-08T09:06:10.123Z,33.30
2018-04-08T09:08:36.435Z,34.60
2018-04-08T09:11:02.712Z,34.10
2018-04-08T09:13:29.719Z,34.20
2018-04-08T09:15:56.009Z,33.70
2018-04-08T09:18:23.058Z,33.10
2018-04-08T09:20:55.426Z,33.70
2018-04-08T09:23:32.476Z,32.50
2018-04-08T09:26:08.811Z,32.60
2018-04-08T09:28:35.365Z,32.00
2018-04-08T09:31:02.397Z,31.60
2018-04-08T09:33:28.687Z,31.70
2018-04-08T09:35:55.055Z,31.60
2018-04-08T09:38:21.312Z,32.00
2018-04-08T09:40:47.623Z,31.90
2018-04-08T09:43:13.885Z,30.30
2018-04-08T09:45:40.252Z,31.00
2018-04-08T09:48:07.260Z,31.90
2018-04-08T09:50:33.630Z,31.20
2018-04-08T09:52:59.892Z,31.10
2018-04-08T09:55:26.180Z,30.80
2018-04-08T09:57:58.508Z,30.60
2018-04-08T10:00:31.645Z,29.90
2018-04-08T10:02:58.829Z,29.50
2018-04-08T10:05:25.163Z,28.30
2018-04-08T10:07:51.462Z,27.20
2018-04-08T10:10:17.711Z,26.50
2018-04-08T10:12:44.030Z,27.00
2018-04-08T10:15:10.364Z,26.30
2018-04-08T10:17:36.695Z,25.40
2018-04-08T10:20:03.726Z,25.10
2018-04-08T10:22:30.028Z,25.20
2018-04-08T10:24:56.343Z,24.60
2018-04-08T10:27:22.619Z,23.20
2018-04-08T10:29:48.883Z,23.90
2018-04-08T10:32:15.158Z,23.90
2018-04-08T10:34:41.420Z,23.40
2018-04-08T10:37:07.727Z,21.60
2018-04-08T10:39:34.732Z,20.70
2018-04-08T10:42:00.992Z,20.60
2018-04-08T10:44:28.036Z,19.20
2018-04-08T10:46:54.291Z,19.20
2018-04-08T10:49:20.572Z,18.90
2018-04-08T10:51:46.916Z,18.10
2018-04-08T10:54:13.127Z,18.60
2018-04-08T10:56:39.381Z,20.40
2018-04-08T10:59:05.646Z,19.80
2018-04-08T11:01:31.911Z,18.80
2018-04-08T11:03:58.190Z,17.50
2018-04-08T11:06:24.487Z,17.70
2018-04-08T11:08:50.746Z,19.10
2018-04-08T11:11:17.816Z,18.00
2018-04-08T11:13:44.132Z,18.00
2018-04-08T11:16:10.524Z,19.10
2018-04-08T11:18:36.772Z,18.20
2018-04-08T11:21:03.060Z,17.20
2018-04-08T11:23:29.315Z,18.70
2018-04-08T11:25:55.580Z,20.50
2018-04-08T11:28:22.605Z,20.70
2018-04-08T11:30:48.895Z,21.10
2018-04-08T11:33:15.156Z,20.20
2018-04-08T11:35:41.430Z,20.10
2018-04-08T11:38:07.699Z,20.40
2018-04-08T11:40:33.962Z,21.00
2018-04-08T11:43:00.947Z,20.10
2018-04-08T11:45:27.260Z,20.00
2018-04-08T11:47:53.522Z,20.10
2018-04-08T11:50:19.851Z,19.10
2018-04-08T11:52:46.132Z,18.90
2018-04-08T11:55:12.387Z,19.50
2018-04-08T11:57:38.663Z,20.50
2018-04-08T12:00:04.940Z,21.00
2018-04-08T12:02:31.266Z,20.40
2018-04-08T12:04:57.518Z,20.90
2018-04-08T12:07:23.831Z,20.90
2018-04-08T12:09:50.855Z,21.40
2018-04-08T12:12:17.149Z,21.50
2018-04-08T12:14:43.409Z,21.80
2018-04-08T12:17:10.432Z,21.70
2018-04-08T12:19:36.738Z,21.70
2018-04-08T12:22:03.056Z,20.60
2018-04-08T12:24:29.343Z,20.00
2018-04-08T12:26:55.683Z,19.70
2018-04-08T12:29:22.703Z,20.50
2018-04-08T12:31:48.961Z,20.30
2018-04-08T12:34:16.023Z,21.20
2018-04-08T12:36:43.072Z,20.20
2018-04-08T12:39:09.305Z,20.40
2018-04-08T12:41:36.375Z,20.70
2018-04-08T12:44:02.672Z,20.80
2018-04-08T12:46:28.939Z,20.60
2018-04-08T12:48:55.227Z,21.00
2018-04-08T12:51:22.223Z,21.00
2018-04-08T12:53:48.523Z,20.90
2018-04-08T12:56:15.509Z,21.10
2018-04-08T12:58:41.779Z,21.10
2018-04-08T13:01:08.794Z,20.60
2018-04-08T13:03:35.081Z,20.60
2018-04-08T13:06:01.395Z,19.30
2018-04-08T13:08:28.408Z,19.20
2018-04-08T13:10:54.673Z,19.10
2018-04-08T13:13:20.960Z,19.80
2018-04-08T13:15:47.279Z,19.10
2018-04-08T13:18:13.551Z,19.00
2018-04-08T13:20:40.582Z,20.00
2018-04-08T13:23:06.850Z,19.40
2018-04-08T13:25:33.183Z,19.60
2018-04-08T13:27:59.443Z,18.60
2018-04-08T13:30:25.720Z,17.90
2018-04-08T13:32:52.731Z,17.10
2018-04-08T13:35:19.054Z,17.00
2018-04-08T13:37:45.295Z,16.40
2018-04-08T13:40:11.589Z,16.20
2018-04-08T13:42:37.850Z,16.40
2018-04-08T13:45:04.139Z,17.00
2018-04-08T13:47:30.447Z,15.20
2018-04-08T13:49:57.480Z,15.20
2018-04-08T13:52:23.767Z,14.80
2018-04-08T13:54:50.084Z,16.10
2018-04-08T13:57:16.362Z,16.00
2018-04-08T13:59:42.678Z,15.90
2018-04-08T14:02:09.040Z,15.20
2018-04-08T14:04:35.294Z,15.60
2018-04-08T14:07:02.309Z,16.10
2018-04-08T14:09:28.559Z,16.10
2018-04-08T14:11:55.600Z,15.80
2018-04-08T14:14:22.645Z,16.70
2018-04-08T14:16:48.891Z,16.60
2018-04-08T14:19:15.147Z,16.40
2018-04-08T14:21:41.427Z,16.50
2018-04-08T14:24:07.696Z,16.30
2018-04-08T14:26:33.938Z,16.60
2018-04-08T14:29:00.226Z,16.70
2018-04-08T14:31:27.260Z,16.50
2018-04-08T14:33:54.320Z,16.80
2018-04-08T14:36:20.592Z,16.70
2018-04-08T14:38:46.870Z,16.50
2018-04-08T14:41:13.132Z,15.90
2018-04-08T14:43:39.440Z,16.10
2018-04-08T14:46:06.485Z,16.70
2018-04-08T14:48:32.815Z,16.90
2018-04-08T14:50:59.123Z,16.70
2018-04-08T14:53:25.435Z,16.80
2018-04-08T14:55:51.707Z,16.70
2018-04-08T14:58:18.750Z,15.80
2018-04-08T15:00:45.795Z,15.30
2018-04-08T15:03:12.062Z,15.20
2018-04-08T15:05:38.364Z,15.20
2018-04-08T15:08:05.417Z,14.80
2018-04-08T15:10:32.439Z,14.90
2018-04-08T15:12:58.739Z,14.90
2018-04-08T15:15:25.093Z,15.10
2018-04-08T15:17:51.387Z,15.30
2018-04-08T15:20:17.655Z,15.80
2018-04-08T15:22:43.942Z,16.00
2018-04-08T15:25:10.237Z,16.60
2018-04-08T15:27:36.471Z,16.90
2018-04-08T15:30:03.505Z,17.50
2018-04-08T15:32:29.806Z,17.40
2018-04-08T15:34:56.125Z,17.70
2018-04-08T15:37:22.392Z,17.30
2018-04-08T15:39:48.648Z,17.70
2018-04-08T15:42:15.706Z,18.00
2018-04-08T15:44:42.024Z,18.00
2018-04-08T15:47:09.044Z,18.40
2018-04-08T15:49:35.391Z,18.40
2018-04-08T15:52:01.766Z,18.40
2018-04-08T15:54:28.028Z,18.60
2018-04-08T15:56:54.351Z,18.40
2018-04-08T15:59:20.682Z,18.40
2018-04-08T16:01:47.037Z,18.50
2018-04-08T16:04:13.298Z,18.70
2018-04-08T16:06:39.591Z,18.50
2018-04-08T16:09:06.615Z,19.00
2018-04-08T16:11:32.964Z,18.90
2018-04-08T16:14:00.180Z,19.20
2018-04-08T16:16:26.444Z,19.10
2018-04-08T16:18:52.732Z,18.90
2018-04-08T16:21:19.044Z,18.80
2018-04-08T16:23:46.057Z,18.50
2018-04-08T16:26:12.332Z,18.60
2018-04-08T16:28:38.611Z,18.40
2018-04-08T16:31:04.898Z,18.30
2018-04-08T16:33:31.195Z,18.60
2018-04-08T16:35:58.217Z,19.60
2018-04-08T16:38:24.524Z,19.40
2018-04-08T16:40:50.788Z,18.60
2018-04-08T16:43:17.070Z,18.80
2018-04-08T16:45:43.325Z,18.50
2018-04-08T16:48:09.642Z,18.70
2018-04-08T16:50:35.931Z,18.50
2018-04-08T16:53:02.992Z,18.10
2018-04-08T16:55:29.331Z,18.20
2018-04-08T16:57:55.687Z,17.90
2018-04-08T17:00:21.992Z,17.70
2018-04-08T17:02:48.235Z,18.20
2018-04-08T17:05:14.516Z,18.30
2018-04-08T17:07:45.885Z,18.50
2018-04-08T17:10:13.092Z,18.30
2018-04-08T17:12:39.487Z,18.30
2018-04-08T17:15:05.809Z,18.50
2018-04-08T17:17:32.128Z,18.20
2018-04-08T17:19:59.237Z,18.00
2018-04-08T17:22:25.558Z,17.80
2018-04-08T17:24:51.923Z,18.00
2018-04-08T17:27:18.979Z,18.30
2018-04-08T17:29:45.987Z,18.40
2018-04-08T17:32:12.320Z,18.30
2018-04-08T17:34:39.367Z,18.60
2018-04-08T17:37:05.761Z,18.50
2018-04-08T17:39:32.073Z,18.70
2018-04-08T17:41:59.155Z,19.20
2018-04-08T17:44:25.469Z,19.00
2018-04-08T17:46:51.779Z,19.20
2018-04-08T17:49:18.883Z,19.50
2018-04-08T17:51:45.171Z,19.20
2018-04-08T17:54:11.475Z,19.50
2018-04-08T17:56:38.556Z,19.70
2018-04-08T17:59:04.814Z,19.70
2018-04-08T18:01:31.111Z,19.80
2018-04-08T18:03:57.396Z,19.60
2018-04-08T18:06:23.709Z,19.90
2018-04-08T18:08:50.006Z,20.00
2018-04-08T18:11:16.271Z,20.10
2018-04-08T18:13:42.564Z,20.50
2018-04-08T18:16:08.869Z,20.60
2018-04-08T18:18:35.912Z,21.40
2018-04-08T18:21:02.923Z,22.00
2018-04-08T18:23:29.286Z,21.50
2018-04-08T18:25:55.531Z,22.80
2018-04-08T18:28:22.588Z,24.20
2018-04-08T18:30:49.587Z,24.40
2018-04-08T18:33:15.887Z,24.10
2018-04-08T18:35:42.175Z,24.20
2018-04-08T18:38:09.218Z,24.90
2018-04-08T18:40:35.469Z,24.60
2018-04-08T18:43:01.771Z,25.10
2018-04-08T18:45:28.065Z,25.00
2018-04-08T18:47:54.345Z,25.40
2018-04-08T18:50:21.400Z,26.80
2018-04-08T18:52:48.465Z,26.60
2018-04-08T18:55:14.763Z,26.60
2018-04-08T18:57:41.837Z,27.50
2018-04-08T19:00:08.244Z,26.50
2018-04-08T19:02:34.584Z,26.30
2018-04-08T19:05:00.902Z,25.30
2018-04-08T19:07:28.026Z,25.70
2018-04-08T19:09:54.280Z,25.50
2018-04-08T19:12:20.595Z,27.00
2018-04-08T19:14:53.731Z,27.40
2018-04-08T19:17:26.825Z,28.40
2018-04-08T19:19:53.091Z,28.30
2018-04-08T19:22:19.383Z,28.70
2018-04-08T19:24:46.436Z,29.00
2018-04-08T19:27:18.674Z,29.30
2018-04-08T19:29:45.715Z,29.90
2018-04-08T19:32:11.976Z,29.50
2018-04-08T19:34:38.246Z,29.90
2018-04-08T19:37:04.591Z,29.60
2018-04-08T19:39:30.852Z,29.90
2018-04-08T19:41:57.917Z,30.60
2018-04-08T19:44:24.996Z,30.40
2018-04-08T19:46:51.316Z,30.40
2018-04-08T19:49:17.639Z,30.00
2018-04-08T19:51:43.920Z,28.40
2018-04-08T19:54:10.168Z,27.90
2018-04-08T19:56:37.184Z,27.00
2018-04-08T19:59:03.460Z,26.60
2018-04-08T20:01:30.475Z,28.40
2018-04-08T20:03:56.758Z,28.20
2018-04-08T20:06:23.161Z,27.70
2018-04-08T20:08:50.220Z,31.10
2018-04-08T20:11:16.516Z,30.70
2018-04-08T20:13:42.855Z,32.10
2018-04-08T20:16:09.151Z,32.60
2018-04-08T20:18:35.451Z,32.80
2018-04-08T20:21:01.723Z,32.70
2018-04-08T20:23:28.032Z,32.90
2018-04-08T20:25:54.291Z,32.70
2018-04-08T20:28:20.561Z,33.30
2018-04-08T20:30:47.642Z,35.20
2018-04-08T20:33:13.940Z,34.80
2018-04-08T20:35:41.069Z,35.30
2018-04-08T20:38:08.079Z,34.90
2018-04-08T20:40:34.434Z,34.80
2018-04-08T20:43:00.720Z,34.20
2018-04-08T20:45:27.027Z,32.40
2018-04-08T20:47:54.035Z,33.70
2018-04-08T20:50:20.304Z,33.20
2018-04-08T20:52:47.327Z,35.70
2018-04-08T20:55:13.642Z,35.00
2018-04-08T20:57:39.892Z,34.40
2018-04-08T21:00:06.199Z,32.40
2018-04-08T21:02:32.454Z,36.70
2018-04-08T21:04:59.585Z,37.50
2018-04-08T21:07:25.873Z,37.00
2018-04-08T21:09:52.148Z,36.90
2018-04-08T21:12:18.408Z,36.50
2018-04-08T21:14:45.436Z,38.90
2018-04-08T21:17:11.675Z,39.10
2018-04-08T21:19:38.671Z,37.30
2018-04-08T21:22:04.948Z,36.80
2018-04-08T21:24:31.207Z,37.50
2018-04-08T21:26:57.494Z,37.70
2018-04-08T21:29:23.746Z,36.00
2018-04-08T21:31:50.772Z,38.50
2018-04-08T21:34:17.063Z,38.70
2018-04-08T21:36:43.359Z,38.50
2018-04-08T21:39:10.394Z,38.00
2018-04-08T21:41:36.648Z,38.00
2018-04-08T21:44:02.948Z,37.70
2018-04-08T21:46:30.010Z,36.90
2018-04-08T21:48:57.007Z,36.80
2018-04-08T21:51:23.327Z,36.40
2018-04-08T21:53:49.623Z,36.50
2018-04-08T21:56:15.948Z,37.30
2018-04-08T21:58:42.239Z,36.50
2018-04-08T22:01:08.548Z,36.80
2018-04-08T22:03:35.621Z,37.50
2018-04-08T22:06:01.896Z,37.80
2018-04-08T22:08:28.975Z,37.50
2018-04-08T22:10:55.260Z,37.10
2018-04-08T22:13:21.547Z,37.90
2018-04-08T22:15:47.783Z,37.70
2018-04-08T22:18:14.052Z,37.70
2018-04-08T22:20:41.048Z,38.60
2018-04-08T22:23:07.311Z,38.60
2018-04-08T22:25:34.318Z,39.10
2018-04-08T22:28:00.570Z,39.10
2018-04-08T22:30:27.691Z,39.20
2018-04-08T22:32:53.987Z,39.40
2018-04-08T22:35:20.991Z,39.60
2018-04-08T22:37:47.237Z,39.50
2018-04-08T22:40:13.502Z,39.00
2018-04-08T22:42:39.742Z,39.90
2018-04-08T22:45:06.016Z,39.80
2018-04-08T22:47:32.271Z,40.50
2018-04-08T22:49:58.546Z,40.70
2018-04-08T22:52:24.827Z,41.00
2018-04-08T22:54:51.823Z,41.70
2018-04-08T22:57:18.084Z,41.40
2018-04-08T22:59:44.360Z,41.40
2018-04-08T23:02:10.625Z,41.80
2018-04-08T23:04:36.909Z,42.00
2018-04-08T23:07:03.183Z,42.10
2018-04-08T23:09:29.480Z,42.30
2018-04-08T23:11:55.775Z,42.40
2018-04-08T23:14:22.037Z,41.70
2018-04-08T23:16:48.303Z,42.00
2018-04-08T23:19:14.567Z,41.90
2018-04-08T23:21:41.585Z,42.20
2018-04-08T23:24:07.855Z,42.20
2018-04-08T23:26:34.129Z,42.20
2018-04-08T23:29:00.385Z,42.10
2018-04-08T23:31:26.655Z,42.80
2018-04-08T23:33:52.918Z,42.90
2018-04-08T23:36:19.199Z,42.80
2018-04-08T23:38:46.179Z,43.30
2018-04-08T23:41:12.452Z,43.40
2018-04-08T23:43:38.711Z,43.30
2018-04-08T23:46:05.744Z,44.40
2018-04-08T23:48:32.031Z,43.80
2018-04-08T23:50:58.318Z,44.80
2018-04-08T23:53:25.306Z,45.20
2018-04-08T23:55:51.575Z,45.20
2018-04-08T23:58:17.832Z,45.70
